createdAt,value
2022-11-21T07:17:19.771Z,100.00
2022-11-21T08:02:11.215Z,100.00
2022-11-21T08:06:12.278Z,100.00
2022-11-21T08:09:18.363Z,100.00
2022-11-21T08:11:54.183Z,100.00
2022-11-21T08:54:29.599Z,100.00
2022-11-21T08:57:08.653Z,100.00
2022-11-21T09:00:24.797Z,100.00
2022-11-21T09:06:57.209Z,100.00
2022-11-21T09:09:25.557Z,100.00
2022-11-21T09:11:53.123Z,100.00
2022-11-21T09:14:38.303Z,100.00
2022-11-21T09:17:23.631Z,100.00
2022-11-21T09:19:52.767Z,100.00
2022-11-21T09:22:19.588Z,100.00
2022-11-21T09:24:47.049Z,100.00
2022-11-21T09:27:13.967Z,100.00
2022-11-21T09:29:48.107Z,100.00
2022-11-21T09:32:21.006Z,100.00
2022-11-21T09:34:47.740Z,100.00
2022-11-21T09:37:21.848Z,100.00
2022-11-21T09:39:56.262Z,100.00
2022-11-21T09:42:44.154Z,100.00
2022-11-21T09:45:20.101Z,100.00
2022-11-21T09:47:50.635Z,100.00
2022-11-21T09:50:32.927Z,100.00
2022-11-21T09:53:08.660Z,100.00
2022-11-21T09:55:37.369Z,100.00
2022-11-21T09:58:21.636Z,100.00
2022-11-21T10:00:53.310Z,100.00
2022-11-21T10:03:22.942Z,100.00
2022-11-21T10:06:25.470Z,100.00
2022-11-21T10:09:27.743Z,100.00
2022-11-21T10:12:23.109Z,100.00
2022-11-21T10:14:52.820Z,100.00
2022-11-21T10:18:08.638Z,100.00
2022-11-21T10:21:16.954Z,100.00
2022-11-21T10:24:21.293Z,100.00
2022-11-21T10:27:02.465Z,100.00
2022-11-21T10:29:41.951Z,100.00
2022-11-21T10:32:22.119Z,100.00
2022-11-21T10:34:51.050Z,100.00
2022-11-21T10:37:40.422Z,100.00
2022-11-21T10:40:32.289Z,100.00
2022-11-21T10:43:45.618Z,100.00
2022-11-21T10:46:12.075Z,100.00
2022-11-21T10:48:38.966Z,100.00
2022-11-21T10:51:39.694Z,100.00
2022-11-21T10:54:27.195Z,100.00
2022-11-21T10:56:56.826Z,100.00
2022-11-21T10:59:30.883Z,100.00
2022-11-21T11:02:13.138Z,100.00
2022-11-21T11:04:47.448Z,100.00
2022-11-21T11:07:31.209Z,100.00
2022-11-21T11:10:27.685Z,100.00
2022-11-21T11:13:38.725Z,100.00
2022-11-21T11:16:11.533Z,100.00
2022-11-21T11:18:47.225Z,100.00
2022-11-21T11:21:18.028Z,100.00
2022-11-21T11:23:45.500Z,100.00
2022-11-21T11:26:23.159Z,100.00
2022-11-21T11:28:50.002Z,100.00
2022-11-21T11:31:17.333Z,100.00
2022-11-21T11:33:55.732Z,100.00
2022-11-21T11:36:37.850Z,100.00
2022-11-21T11:39:21.871Z,100.00
2022-11-21T11:42:36.505Z,100.00
2022-11-21T11:45:33.404Z,100.00
2022-11-21T11:48:02.549Z,100.00
2022-11-21T11:50:38.498Z,100.00
2022-11-21T11:53:23.219Z,100.00
2022-11-21T11:56:16.975Z,100.00
2022-11-21T11:58:57.695Z,100.00
2022-11-21T12:01:44.324Z,100.00
2022-11-21T12:04:17.006Z,100.00
2022-11-21T12:09:34.810Z,100.00
2022-11-21T12:12:23.541Z,100.00
2022-11-21T12:15:09.025Z,100.00
2022-11-21T12:18:22.185Z,100.00
2022-11-21T12:21:02.897Z,100.00
2022-11-21T12:23:52.598Z,100.00
2022-11-21T12:26:47.118Z,99.85
2022-11-21T12:29:35.228Z,99.88
2022-11-21T12:32:37.927Z,99.83
2022-11-21T12:35:33.273Z,99.75
2022-11-21T12:38:39.441Z,99.98
2022-11-21T12:41:37.950Z,99.75
2022-11-21T12:44:25.940Z,99.45
2022-11-21T12:47:10.074Z,99.01
2022-11-21T12:50:26.128Z,98.67
2022-11-21T12:53:32.034Z,98.76
2022-11-21T12:56:09.009Z,98.37
2022-11-21T12:58:42.779Z,98.25
2022-11-21T13:01:27.509Z,98.09
2022-11-21T13:04:09.629Z,98.47
2022-11-21T13:06:43.274Z,98.20
2022-11-21T13:09:15.040Z,97.62
2022-11-21T13:12:08.087Z,97.78
2022-11-21T13:14:37.511Z,97.79
2022-11-21T13:18:02.158Z,97.36
2022-11-21T13:20:39.871Z,97.63
2022-11-21T13:23:36.531Z,97.21
2022-11-21T13:26:23.605Z,97.58
2022-11-21T13:28:50.825Z,97.56
2022-11-21T13:31:31.612Z,97.04
2022-11-21T13:33:58.999Z,96.88
2022-11-21T13:36:28.762Z,96.65
2022-11-21T13:38:55.254Z,96.82
2022-11-21T13:41:52.897Z,96.58
2022-11-21T13:44:40.839Z,96.33
2022-11-21T13:47:25.774Z,96.00
2022-11-21T13:50:16.709Z,96.49
2022-11-21T13:53:22.241Z,96.40
2022-11-21T13:55:55.688Z,95.97
2022-11-21T13:58:37.640Z,96.15
2022-11-21T14:01:18.717Z,96.25
2022-11-21T14:03:51.400Z,95.70
2022-11-21T14:06:38.055Z,95.94
2022-11-21T14:09:13.567Z,95.91
2022-11-21T14:11:49.966Z,96.09
2022-11-21T14:14:38.367Z,96.20
2022-11-21T14:17:26.844Z,96.25
2022-11-21T14:19:58.597Z,96.45
2022-11-21T14:22:38.728Z,96.14
2022-11-21T14:25:17.158Z,96.58
2022-11-21T14:27:48.144Z,96.17
2022-11-21T14:30:29.571Z,96.17
2022-11-21T14:32:56.529Z,96.45
2022-11-21T14:35:24.109Z,96.67
2022-11-21T14:37:51.717Z,96.74
2022-11-21T14:40:23.331Z,96.42
2022-11-21T14:42:50.354Z,96.51
2022-11-21T14:45:19.795Z,96.12
2022-11-21T14:47:50.751Z,96.39
2022-11-21T14:50:26.242Z,96.37
2022-11-21T14:52:57.435Z,96.38
2022-11-21T14:55:30.599Z,96.71
2022-11-21T14:57:59.424Z,96.80
2022-11-21T15:00:57.922Z,96.87
2022-11-21T15:03:25.090Z,96.85
2022-11-21T15:06:04.617Z,97.29
2022-11-21T15:09:05.969Z,97.02
2022-11-21T15:11:23.568Z,97.52
2022-11-21T15:14:15.617Z,97.54
2022-11-21T15:16:47.869Z,97.70
2022-11-21T15:19:28.988Z,97.49
2022-11-21T15:21:59.481Z,97.65
2022-11-21T15:24:56.499Z,97.59
2022-11-21T15:27:30.068Z,97.58
2022-11-21T15:30:15.057Z,97.97
2022-11-21T15:33:03.239Z,98.19
2022-11-21T15:35:38.832Z,97.92
2022-11-21T15:38:26.407Z,98.15
2022-11-21T15:41:09.658Z,98.20
2022-11-21T15:43:43.675Z,98.28
2022-11-21T15:46:21.351Z,98.52
2022-11-21T15:48:55.865Z,98.43
2022-11-21T15:54:22.271Z,98.55
2022-11-21T15:56:48.950Z,98.53
2022-11-21T15:59:16.054Z,98.31
2022-11-21T16:01:43.030Z,98.48
2022-11-21T16:04:12.692Z,98.63
2022-11-21T16:06:39.467Z,98.72
2022-11-21T16:09:06.100Z,98.64
2022-11-21T16:11:37.334Z,98.40
2022-11-21T16:14:05.820Z,98.78
2022-11-21T16:16:38.494Z,98.37
2022-11-21T16:19:13.379Z,98.89
2022-11-21T16:21:40.413Z,98.54
2022-11-21T16:24:07.761Z,98.64
2022-11-21T16:26:34.401Z,98.98
2022-11-21T16:29:03.911Z,98.87
2022-11-21T16:31:34.280Z,99.20
2022-11-21T16:34:01.032Z,99.04
2022-11-21T16:36:32.430Z,99.04
2022-11-21T16:39:07.629Z,99.44
2022-11-21T16:41:35.896Z,98.86
2022-11-21T16:44:02.474Z,99.35
2022-11-21T16:46:29.185Z,99.26
2022-11-21T16:49:01.584Z,99.12
2022-11-21T16:51:28.535Z,99.19
2022-11-21T16:53:56.953Z,99.29
2022-11-21T16:56:23.736Z,99.20
2022-11-21T16:58:50.335Z,99.12
2022-11-21T17:01:19.781Z,99.13
2022-11-21T17:03:48.301Z,98.52
2022-11-21T17:06:27.310Z,99.06
2022-11-21T17:08:54.325Z,98.86
2022-11-21T17:11:23.353Z,98.62
2022-11-21T17:13:51.295Z,98.88
2022-11-21T17:16:20.154Z,98.92
2022-11-21T17:18:47.608Z,98.75
2022-11-21T17:21:16.298Z,98.58
2022-11-21T17:23:48.180Z,98.60
2022-11-21T17:26:17.962Z,98.54
2022-11-21T17:28:46.133Z,98.83
2022-11-21T17:31:15.097Z,98.98
2022-11-21T17:33:42.612Z,98.78
2022-11-21T17:36:14.054Z,98.88
2022-11-21T17:38:40.704Z,98.79
2022-11-21T17:41:10.505Z,98.77
2022-11-21T17:43:37.401Z,98.86
2022-11-21T17:46:09.645Z,98.73
2022-11-21T17:48:37.470Z,98.77
2022-11-21T17:51:11.881Z,98.72
2022-11-21T17:53:41.593Z,98.63
2022-11-21T17:56:11.939Z,98.72
2022-11-21T17:58:38.489Z,98.72
2022-11-21T18:01:07.147Z,98.76
2022-11-21T18:03:33.891Z,98.77
2022-11-21T18:06:08.879Z,98.54
2022-11-21T18:08:38.637Z,98.69
2022-11-21T18:11:06.781Z,98.66
2022-11-21T18:13:34.704Z,98.47
2022-11-21T18:16:04.493Z,98.78
2022-11-21T18:18:34.968Z,98.80
2022-11-21T18:21:03.026Z,99.08
2022-11-21T18:23:29.537Z,98.93
2022-11-21T18:25:56.019Z,98.63
2022-11-21T18:28:22.691Z,98.61
2022-11-21T18:30:49.205Z,98.66
2022-11-21T18:33:18.817Z,98.87
2022-11-21T18:35:46.922Z,98.64
2022-11-21T18:38:40.226Z,98.42
2022-11-21T18:41:04.546Z,98.97
2022-11-21T18:43:31.192Z,98.90
2022-11-21T18:46:05.470Z,98.51
2022-11-21T18:49:00.146Z,98.67
2022-11-21T18:51:29.618Z,98.42
2022-11-21T18:53:58.922Z,98.43
2022-11-21T18:56:26.845Z,98.75
2022-11-21T18:58:58.331Z,98.77
2022-11-21T19:01:27.776Z,98.31
2022-11-21T19:03:55.160Z,98.42
2022-11-21T19:06:23.621Z,98.49
2022-11-21T19:08:54.922Z,98.10
2022-11-21T19:11:24.643Z,97.87
2022-11-21T19:13:52.329Z,98.04
2022-11-21T19:16:21.469Z,97.76
2022-11-21T19:19:05.340Z,97.73
2022-11-21T19:21:39.684Z,97.76
2022-11-21T19:24:07.684Z,97.59
2022-11-21T19:26:34.344Z,97.74
2022-11-21T19:29:00.888Z,97.24
2022-11-21T19:31:27.930Z,97.47
2022-11-21T19:33:54.449Z,97.42
2022-11-21T19:36:23.022Z,97.06
2022-11-21T19:38:51.110Z,97.12
2022-11-21T19:41:22.159Z,96.86
2022-11-21T19:43:50.920Z,96.87
2022-11-21T19:46:22.708Z,97.03
2022-11-21T19:48:52.967Z,97.14
2022-11-21T19:51:21.381Z,97.09
2022-11-21T19:53:48.713Z,97.41
2022-11-21T19:56:34.669Z,96.75
2022-11-21T19:59:01.175Z,97.00
2022-11-21T20:01:29.811Z,96.87
2022-11-21T20:03:59.475Z,96.97
2022-11-21T20:06:36.993Z,97.13
2022-11-21T20:09:09.495Z,97.22
2022-11-21T20:11:39.291Z,97.38
2022-11-21T20:14:09.685Z,97.23
2022-11-21T20:16:41.615Z,97.74
2022-11-21T20:19:10.736Z,97.82
2022-11-21T20:21:41.466Z,97.62
2022-11-21T20:24:08.381Z,97.91
2022-11-21T20:26:36.679Z,98.01
2022-11-21T20:29:04.226Z,98.16
2022-11-21T20:31:37.564Z,98.02
2022-11-21T20:34:12.496Z,98.05
2022-11-21T20:36:40.056Z,98.43
2022-11-21T20:39:16.318Z,98.64
2022-11-21T20:41:43.412Z,98.82
2022-11-21T20:44:57.028Z,98.93
2022-11-21T20:47:00.469Z,98.89
2022-11-21T20:49:27.258Z,98.68
2022-11-21T20:54:40.532Z,99.43
2022-11-21T20:57:13.128Z,99.02
2022-11-21T20:59:44.303Z,99.34
2022-11-21T21:02:14.060Z,99.72
2022-11-21T21:04:41.398Z,99.86
2022-11-21T21:07:08.038Z,99.90
2022-11-21T21:09:34.675Z,99.50
2022-11-21T21:12:01.149Z,99.82
2022-11-21T21:14:27.726Z,100.00
2022-11-21T21:16:54.464Z,100.00
2022-11-21T21:19:21.807Z,100.00
2022-11-21T21:21:49.158Z,100.00
2022-11-21T21:24:16.015Z,100.00
2022-11-21T21:26:46.151Z,100.00
2022-11-21T21:29:18.374Z,100.00
2022-11-21T21:31:50.547Z,100.00
2022-11-21T21:34:18.397Z,100.00
2022-11-21T21:36:45.098Z,100.00
2022-11-21T21:39:11.788Z,100.00
2022-11-21T21:41:44.479Z,100.00
2022-11-21T21:44:11.763Z,100.00
2022-11-21T21:46:38.432Z,100.00
2022-11-21T21:49:04.942Z,100.00
2022-11-21T21:51:35.172Z,100.00
2022-11-21T21:54:01.598Z,100.00
2022-11-21T21:56:29.270Z,100.00
2022-11-21T21:58:58.899Z,100.00
2022-11-21T22:01:30.760Z,100.00
2022-11-21T22:04:02.916Z,100.00
2022-11-21T22:06:31.305Z,100.00
2022-11-21T22:08:57.748Z,100.00
2022-11-21T22:11:32.560Z,100.00
2022-11-21T22:14:07.935Z,100.00
2022-11-21T22:16:34.610Z,100.00
2022-11-21T22:19:01.174Z,100.00
2022-11-21T22:21:32.951Z,100.00
2022-11-21T22:26:47.684Z,100.00
2022-11-21T22:29:14.121Z,100.00
2022-11-21T22:31:40.655Z,100.00
2022-11-21T22:34:07.127Z,100.00
2022-11-21T22:36:34.029Z,100.00
2022-11-21T22:39:00.618Z,100.00
2022-11-21T22:41:27.646Z,100.00
2022-11-21T22:43:56.904Z,100.00
2022-11-21T22:46:25.560Z,100.00
2022-11-21T22:48:52.079Z,100.00
2022-11-21T22:51:27.106Z,100.00
2022-11-21T22:53:53.646Z,100.00
2022-11-21T22:56:22.444Z,100.00
2022-11-21T22:58:49.691Z,100.00
2022-11-21T23:01:19.136Z,100.00
2022-11-21T23:03:46.197Z,100.00
2022-11-21T23:06:14.792Z,100.00
2022-11-21T23:08:41.749Z,100.00
2022-11-21T23:11:16.874Z,100.00
2022-11-21T23:13:46.437Z,100.00
2022-11-21T23:16:13.754Z,100.00
2022-11-21T23:18:40.925Z,100.00
2022-11-21T23:21:08.741Z,100.00
2022-11-21T23:23:35.817Z,100.00
2022-11-21T23:26:02.922Z,100.00
2022-11-21T23:28:29.631Z,100.00
2022-11-21T23:30:56.092Z,100.00
2022-11-21T23:33:22.828Z,100.00
2022-11-21T23:35:49.463Z,100.00
2022-11-21T23:38:17.811Z,100.00
2022-11-21T23:40:46.125Z,100.00
2022-11-21T23:43:13.641Z,100.00
2022-11-21T23:45:40.123Z,100.00
2022-11-21T23:48:07.799Z,100.00
2022-11-21T23:50:34.443Z,100.00
2022-11-21T23:53:01.063Z,100.00
2022-11-21T23:55:28.403Z,100.00
2022-11-21T23:57:54.961Z,100.00
